createdAt,value
2022-08-17T00:03:59.298Z,26.53
2022-08-17T00:08:59.012Z,26.65
2022-08-17T00:13:56.850Z,26.65
2022-08-17T00:19:06.088Z,26.56
2022-08-17T00:24:05.602Z,26.30
2022-08-17T00:29:02.310Z,26.36
2022-08-17T00:33:59.163Z,26.15
2022-08-17T00:38:55.869Z,26.24
2022-08-17T00:43:54.588Z,26.09
2022-08-17T00:48:51.392Z,25.94
2022-08-17T00:53:51.172Z,26.06
2022-08-17T00:58:49.272Z,25.86
2022-08-17T01:03:46.911Z,25.71
2022-08-17T01:08:43.650Z,25.50
2022-08-17T01:13:41.730Z,25.45
2022-08-17T01:18:39.772Z,25.54
2022-08-17T01:23:37.447Z,25.59
2022-08-17T01:28:53.901Z,25.52
2022-08-17T01:33:51.701Z,25.37
2022-08-17T01:38:49.119Z,25.20
2022-08-17T01:43:49.166Z,25.31
2022-08-17T01:48:46.901Z,25.46
2022-08-17T01:53:47.145Z,25.42
2022-08-17T01:58:45.067Z,25.64
2022-08-17T02:03:59.020Z,25.70
2022-08-17T02:09:01.752Z,25.58
2022-08-17T02:14:02.780Z,25.57
2022-08-17T02:19:01.011Z,25.61
2022-08-17T02:23:57.965Z,25.62
2022-08-17T02:28:54.964Z,25.87
2022-08-17T02:34:00.277Z,25.59
2022-08-17T02:39:01.718Z,25.47
2022-08-17T02:43:58.503Z,25.43
2022-08-17T02:48:55.857Z,25.15
2022-08-17T02:53:52.533Z,25.25
2022-08-17T02:59:09.179Z,25.37
2022-08-17T03:04:06.609Z,25.26
2022-08-17T03:09:03.328Z,25.16
2022-08-17T03:14:00.290Z,25.04
2022-08-17T03:18:57.362Z,25.18
2022-08-17T03:23:54.809Z,25.37
2022-08-17T03:28:51.486Z,25.43
2022-08-17T03:33:48.248Z,25.22
2022-08-17T03:38:45.100Z,25.10
2022-08-17T03:43:42.521Z,25.10
2022-08-17T03:48:57.371Z,25.28
2022-08-17T03:54:13.212Z,25.54
2022-08-17T03:59:20.867Z,25.78
2022-08-17T04:04:19.336Z,25.59
2022-08-17T04:09:24.490Z,25.56
2022-08-17T04:14:21.852Z,25.66
2022-08-17T04:19:18.616Z,25.59
2022-08-17T04:24:15.297Z,25.42
2022-08-17T04:29:12.427Z,25.54
2022-08-17T04:34:13.646Z,25.38
2022-08-17T04:39:10.351Z,25.21
2022-08-17T04:44:07.568Z,25.15
2022-08-17T04:49:07.205Z,25.27
2022-08-17T04:54:05.999Z,25.22
2022-08-17T04:59:04.257Z,25.31
2022-08-17T05:04:20.937Z,25.48
2022-08-17T05:09:23.730Z,25.58
2022-08-17T05:14:21.659Z,25.60
2022-08-17T05:19:29.204Z,25.97
2022-08-17T05:24:41.251Z,25.93
2022-08-17T05:29:40.644Z,26.11
2022-08-17T05:34:37.428Z,26.23
2022-08-17T05:39:34.790Z,26.39
2022-08-17T05:44:31.572Z,26.43
2022-08-17T05:49:34.047Z,26.40
2022-08-17T05:54:39.320Z,26.30
2022-08-17T05:59:44.363Z,26.28
2022-08-17T06:04:50.071Z,26.40
2022-08-17T06:09:52.553Z,26.37
2022-08-17T06:14:58.258Z,26.42
2022-08-17T06:19:57.881Z,26.59
2022-08-17T06:24:56.670Z,26.47
2022-08-17T06:29:57.927Z,26.81
2022-08-17T06:34:55.153Z,26.97
2022-08-17T06:40:36.053Z,26.95
2022-08-17T06:45:35.548Z,27.19
2022-08-17T06:50:35.650Z,27.39
2022-08-17T06:55:38.286Z,27.48
2022-08-17T07:00:40.317Z,27.53
2022-08-17T07:05:40.722Z,27.55
2022-08-17T07:10:40.548Z,27.56
2022-08-17T07:15:43.980Z,27.87
2022-08-17T07:20:42.744Z,28.06
2022-08-17T07:25:40.039Z,28.18
2022-08-17T07:30:48.547Z,28.16
2022-08-17T07:35:49.540Z,28.37
2022-08-17T07:40:48.405Z,28.61
2022-08-17T07:46:12.037Z,28.93
2022-08-17T07:51:16.631Z,29.13
2022-08-17T07:56:34.382Z,29.20
2022-08-17T08:01:41.789Z,29.26
2022-08-17T08:06:46.955Z,29.46
2022-08-17T08:11:44.857Z,29.67
2022-08-17T08:16:56.997Z,29.90
2022-08-17T08:22:00.956Z,30.03
2022-08-17T08:27:03.716Z,30.22
2022-08-17T08:32:05.464Z,30.08
2022-08-17T08:37:19.103Z,30.33
2022-08-17T08:42:22.908Z,30.60
2022-08-17T08:47:44.478Z,30.59
2022-08-17T08:53:00.036Z,30.81
2022-08-17T08:58:00.797Z,31.06
2022-08-17T09:03:18.832Z,31.12
2022-08-17T09:08:19.489Z,31.19
2022-08-17T09:13:21.984Z,31.30
2022-08-17T09:19:03.059Z,31.27
2022-08-17T09:23:41.792Z,31.58
2022-08-17T09:28:44.699Z,31.47
2022-08-17T09:33:44.282Z,31.50
2022-08-17T09:38:44.570Z,31.62
2022-08-17T09:43:46.642Z,31.70
2022-08-17T09:48:47.703Z,31.79
2022-08-17T09:53:44.807Z,31.95
2022-08-17T09:58:48.436Z,32.05
2022-08-17T10:03:58.839Z,32.08
2022-08-17T10:09:04.331Z,32.15
2022-08-17T10:14:24.039Z,32.36
2022-08-17T10:19:27.555Z,32.71
2022-08-17T10:25:23.262Z,33.00
2022-08-17T10:30:13.323Z,32.93
2022-08-17T10:35:28.858Z,32.79
2022-08-17T10:40:32.588Z,32.97
2022-08-17T10:45:33.931Z,33.01
2022-08-17T10:50:45.536Z,33.08
2022-08-17T10:56:05.142Z,33.08
2022-08-17T11:01:03.230Z,33.08
2022-08-17T11:06:06.156Z,33.20
2022-08-17T11:11:12.413Z,33.17
2022-08-17T11:16:20.683Z,33.31
2022-08-17T11:21:29.550Z,33.73
2022-08-17T11:26:28.800Z,33.69
2022-08-17T11:31:39.016Z,33.77
2022-08-17T11:36:52.971Z,33.61
2022-08-17T11:41:54.440Z,33.68
2022-08-17T11:47:17.939Z,33.84
2022-08-17T11:52:34.878Z,33.90
2022-08-17T11:58:05.871Z,34.20
2022-08-17T12:03:21.700Z,34.10
2022-08-17T12:08:19.755Z,34.08
2022-08-17T12:13:17.222Z,34.10
2022-08-17T12:18:18.490Z,34.02
2022-08-17T12:23:18.500Z,34.30
2022-08-17T12:28:21.440Z,34.29
2022-08-17T12:33:25.443Z,34.30
2022-08-17T12:38:32.702Z,34.20
2022-08-17T12:43:33.118Z,34.17
2022-08-17T12:48:31.342Z,34.36
2022-08-17T12:53:29.949Z,34.42
2022-08-17T12:58:28.754Z,34.28
2022-08-17T13:03:36.218Z,34.32
2022-08-17T13:08:35.503Z,34.36
2022-08-17T13:13:33.002Z,34.32
2022-08-17T13:18:41.941Z,34.41
2022-08-17T13:23:38.678Z,34.61
2022-08-17T13:28:46.728Z,34.67
2022-08-17T13:33:45.113Z,34.81
2022-08-17T13:38:45.064Z,34.75
2022-08-17T13:43:47.925Z,34.73
2022-08-17T13:48:45.667Z,34.62
2022-08-17T13:53:59.124Z,34.55
2022-08-17T13:58:57.182Z,34.50
2022-08-17T14:03:55.994Z,34.57
2022-08-17T14:08:54.019Z,34.38
2022-08-17T14:13:50.861Z,34.29
2022-08-17T14:18:56.176Z,34.24
2022-08-17T14:23:55.143Z,34.23
2022-08-17T14:28:56.197Z,34.25
2022-08-17T14:33:54.100Z,34.33
2022-08-17T14:38:50.811Z,34.40
2022-08-17T14:43:48.159Z,34.50
2022-08-17T14:48:44.822Z,34.47
2022-08-17T14:53:41.890Z,34.59
2022-08-17T14:58:38.586Z,34.58
2022-08-17T15:03:36.171Z,34.63
2022-08-17T15:08:32.827Z,34.73
2022-08-17T15:13:30.184Z,34.83
2022-08-17T15:18:28.309Z,34.93
2022-08-17T15:23:27.124Z,34.69
2022-08-17T15:28:23.865Z,34.62
2022-08-17T15:33:21.645Z,34.51
2022-08-17T15:38:18.355Z,34.35
2022-08-17T15:43:24.823Z,34.29
2022-08-17T15:48:25.194Z,34.17
2022-08-17T15:53:22.343Z,33.94
2022-08-17T15:58:19.779Z,33.62
2022-08-17T16:04:01.438Z,33.72
2022-08-17T16:08:51.398Z,33.55
2022-08-17T16:13:54.526Z,33.47
2022-08-17T16:18:53.516Z,33.49
2022-08-17T16:23:56.229Z,33.36
2022-08-17T16:28:53.982Z,33.35
2022-08-17T16:34:15.858Z,33.24
2022-08-17T16:39:10.277Z,33.27
2022-08-17T16:44:07.873Z,33.30
2022-08-17T16:49:31.540Z,33.35
2022-08-17T16:54:36.908Z,33.35
2022-08-17T16:59:42.071Z,33.37
2022-08-17T17:04:46.199Z,33.17
2022-08-17T17:09:46.442Z,32.74
2022-08-17T17:14:46.453Z,32.62
2022-08-17T17:19:46.432Z,32.79
2022-08-17T17:24:50.186Z,32.88
2022-08-17T17:29:56.822Z,32.63
2022-08-17T17:34:58.182Z,32.80
2022-08-17T17:39:56.573Z,32.61
2022-08-17T17:44:59.022Z,32.58
2022-08-17T17:49:55.866Z,32.46
2022-08-17T17:55:10.154Z,32.41
2022-08-17T18:00:11.772Z,32.33
2022-08-17T18:05:15.382Z,32.16
2022-08-17T18:10:29.506Z,31.89
2022-08-17T18:15:30.875Z,31.89
2022-08-17T18:20:35.890Z,31.66
2022-08-17T18:25:46.262Z,31.44
2022-08-17T18:30:43.695Z,31.27
2022-08-17T18:35:49.905Z,31.19
2022-08-17T18:41:03.879Z,31.07
2022-08-17T18:46:15.653Z,30.97
2022-08-17T18:51:40.606Z,30.85
2022-08-17T18:56:40.829Z,30.87
2022-08-17T19:01:52.474Z,30.77
2022-08-17T19:07:01.691Z,30.65
2022-08-17T19:11:59.269Z,30.70
2022-08-17T19:16:59.314Z,30.77
2022-08-17T19:21:58.477Z,30.65
2022-08-17T19:26:56.891Z,30.78
2022-08-17T19:31:55.597Z,30.54
2022-08-17T19:36:56.306Z,30.51
2022-08-17T19:41:59.442Z,30.61
2022-08-17T19:47:00.845Z,30.78
2022-08-17T19:52:00.008Z,30.69
2022-08-17T19:57:01.781Z,30.85
2022-08-17T20:02:01.047Z,31.19
2022-08-17T20:06:59.501Z,31.29
2022-08-17T20:11:58.500Z,31.24
2022-08-17T20:17:00.518Z,31.32
2022-08-17T20:22:01.137Z,31.42
2022-08-17T20:26:59.736Z,31.49
2022-08-17T20:32:13.113Z,31.48
2022-08-17T20:37:24.120Z,31.14
2022-08-17T20:42:31.186Z,30.99
2022-08-17T20:47:31.540Z,30.81
2022-08-17T20:52:41.761Z,30.87
2022-08-17T20:57:45.871Z,30.76
2022-08-17T21:02:44.189Z,30.88
2022-08-17T21:07:58.644Z,30.97
2022-08-17T21:12:59.366Z,30.86
2022-08-17T21:18:02.107Z,30.66
2022-08-17T21:23:06.131Z,30.48
2022-08-17T21:28:21.591Z,30.38
2022-08-17T21:33:23.206Z,30.05
2022-08-17T21:38:22.089Z,30.05
2022-08-17T21:43:22.811Z,29.84
2022-08-17T21:48:22.125Z,29.84
2022-08-17T21:53:25.397Z,29.52
2022-08-17T21:58:29.080Z,29.48
2022-08-17T22:03:31.134Z,29.37
2022-08-17T22:08:27.838Z,29.06
2022-08-17T22:13:29.320Z,29.06
2022-08-17T22:18:28.242Z,29.29
2022-08-17T22:23:45.112Z,29.32
2022-08-17T22:28:43.754Z,29.62
2022-08-17T22:33:42.757Z,29.92
2022-08-17T22:38:40.891Z,29.64
2022-08-17T22:43:43.713Z,29.06
2022-08-17T22:48:47.028Z,29.00
2022-08-17T22:54:04.216Z,29.09
2022-08-17T22:59:19.099Z,29.31
2022-08-17T23:04:31.453Z,29.69
2022-08-17T23:09:29.321Z,30.00
2022-08-17T23:14:30.919Z,30.16
2022-08-17T23:19:31.064Z,30.39
2022-08-17T23:24:29.971Z,29.97
2022-08-17T23:29:28.768Z,29.64
2022-08-17T23:34:25.883Z,29.25
2022-08-17T23:39:27.436Z,29.50
2022-08-17T23:44:26.231Z,29.32
2022-08-17T23:49:23.806Z,29.54
2022-08-17T23:54:23.365Z,29.67
2022-08-17T23:59:22.001Z,29.71
